• Join FlightAware (Why Join?)
  • Login
  • US Flag 
12:44PM EDT


 

Airport Tracker/Info


-or-


 

Live Flight TrackerFlight Track Log ✈ TYR847 ✈ 26-Oct-2013 ✈ LOWW / VIE - LATI / TIA

Flight Track Log - Related Links

Times and Time Zones

All times are in EDT time to prevent confusion due to time zone crossing. See the TYR847 flight status page for this flight to view local times or setup timezone preferences in your user account.

Time Position Orientation Groundspeed Altitude Reporting Facility
EDT Latitude Longitude Course Direction KTS MPH feet Rate Location/Type
07:07AM 47.7833 16.7430 160° South  Level Estimated
07:08AM 47.6742 16.8002 161° South  Level Estimated
07:09AM 47.5651 16.8572 161° South  Level Estimated
07:10AM 47.4560 16.9140 161° South  Level Estimated
07:11AM 47.3469 16.9706 161° South  Level Estimated
07:12AM 47.2377 17.0269 161° South  Level Estimated
07:13AM 47.1285 17.0830 161° South  Level Estimated
07:14AM 47.0193 17.1388 161° South  Level Estimated
07:15AM 46.9100 17.1945 161° South  Level Estimated
07:16AM 46.8007 17.2499 161° South  Level Estimated
07:17AM 46.6914 17.3051 161° South  Level Estimated
07:18AM 46.5821 17.3600 161° South  Level Estimated
07:19AM 46.4727 17.4147 161° South  Level Estimated
07:20AM 46.3633 17.4692 161° South  Level Estimated
07:21AM 46.2539 17.5236 161° South  Level Estimated
07:22AM 46.1445 17.5776 161° South  Level Estimated
07:23AM 46.0350 17.6315 161° South  Level Estimated
07:24AM 45.9255 17.6851 161° South  Level Estimated
07:25AM 45.8160 17.7386 161° South  Level Estimated
07:26AM 45.7065 17.7918 161° South  Level Estimated
07:27AM 45.5969 17.8448 161° South  Level Estimated
07:28AM 45.4873 17.8976 161° South  Level Estimated
07:29AM 45.3777 17.9503 161° South  Level Estimated
07:30AM 45.2681 18.0027 161° South  Level Estimated
07:31AM 45.1584 18.0549 161° South  Level Estimated
07:32AM 45.0488 18.1069 161° South  Level Estimated
07:33AM 44.9390 18.1587 162° South  Level Estimated
07:34AM 44.8293 18.2103 162° South  Level Estimated
07:35AM 44.7196 18.2617 162° South  Level Estimated
07:36AM 44.6098 18.3129 162° South  Level Estimated
07:37AM 44.5000 18.3639 162° South  Level Estimated
07:38AM 44.3902 18.4148 162° South  Level Estimated
07:39AM 44.2803 18.4654 162° South  Level Estimated
07:40AM 44.1705 18.5159 162° South  Level Estimated
07:41AM 44.0606 18.5661 162° South  Level Estimated
07:42AM 43.9507 18.6162 162° South  Level Estimated
07:43AM 43.8407 18.6661 162° South  Level Estimated
07:44AM 43.7308 18.7158 162° South  Level Estimated
07:45AM 43.6208 18.7653 162° South  Level Estimated
07:46AM 43.5108 18.8147 162° South  Level Estimated
07:47AM 43.4008 18.8639 162° South  Level Estimated
07:48AM 43.2907 18.9128 162° South  Level Estimated
07:49AM 43.1807 18.9617 162° South  Level Estimated
07:50AM 43.0706 19.0103 162° South  Level Estimated
07:51AM 42.9605 19.0588 162° South  Level Estimated
07:52AM 42.8504 19.1070 162° South  Level Estimated
07:53AM 42.7402 19.1552 162° South  Level Estimated
07:54AM 42.6301 19.2031 162° South  Level Estimated
07:55AM 42.5199 19.2509 162° South  Level Estimated
07:56AM 42.4097 19.2985 162° South  Level Estimated
07:57AM 42.2995 19.3459 162° South  Level Estimated
07:58AM 42.1893 19.3932 162° South  Level Estimated
07:59AM 42.0790 19.4403 162° South  Level Estimated
08:00AM 41.9687 19.4873 162° South  Level Estimated
08:01AM 41.8584 19.5341 162° South  Level Estimated
08:02AM 41.7481 19.5807 162° South  Level Estimated
08:03AM 41.6378 19.6271 163° South  Level Estimated
08:04AM 41.5274 19.6735 163° South  Level Estimated
08:05AM 41.4170 19.7196 163° South  Level Estimated
08:06AM 41.4147 19.7206 163° South  Level Estimated
08:07AM 41.4147 19.7206 21° North  Level Estimated
08:08AM 41.4147 19.7206 21° North  Level Estimated
08:09AM 41.4147 19.7206 21° North  Level Estimated
08:10AM 41.4147 19.7206 21° North  Level Estimated
08:11AM 41.4147 19.7206 21° North  Level Estimated
08:12AM 41.4147 19.7206 21° North  Level Estimated
08:13AM 41.4147 19.7206 21° North  Level Estimated
08:14AM 41.4147 19.7206 21° North  Level Estimated
08:15AM 41.4147 19.7206 21° North  Level Estimated
08:16AM 41.4147 19.7206 21° North  Level Estimated
08:17AM 41.4147 19.7206 21° North  Level Estimated
08:18AM 41.4147 19.7206 21° North  Level Estimated
08:19AM 41.4147 19.7206 21° North  Level Estimated
08:20AM 41.4147 19.7206 21° North  Level Estimated